Latest Weather Observations for Gannett Cay

IDQ60801

Issued at 11:05 pm EST Saturday 26 July 2014 (issued every 30 minutes, with the page automatically refreshed every 10 minutes)

About weather observations | Map of weather stations | Latest weather observations for QLD | Other Formats
Station Details ID: 200831 Name: GANNET CAY Lat: -21.98 Lon: 152.47 Height: 2.3 m
Data from the previous 72 hours. | See also: Recent months for locations in Queensland
Date/Time
EST
Temp
°C
App
Temp
°C
Dew
Point
Rel
Hum
%
Delta-T
°C
Wind Press
QNH
hPa
Press
MSL
hPa
Rain
since 9 am
mm
Dir
 
Spd
km/h
Gust
km/h
Spd
kts
Gust
kts
26/11:00pm 22.2 - - - - E 17 20 9 11 1023.6 - -
26/10:30pm 22.2 - - - - ENE 19 20 10 11 1023.6 - -
26/10:26pm 22.2 - - - - ENE 19 - 10 - - 1023.7 -
26/10:00pm 22.2 - - - - E 19 20 10 11 1023.6 - -
26/09:30pm 22.3 - - - - ENE 20 22 11 12 1023.4 - -
26/09:26pm 22.4 - - - - ENE 19 - 10 - - 1023.7 -
26/09:00pm 22.3 - - - - ENE 20 24 11 13 1023.4 - -
26/08:30pm 22.2 - - - - ENE 22 26 12 14 1023.5 - -
26/08:26pm 22.2 - - - - ENE 22 - 12 - - 1023.5 -
26/08:00pm 22.3 - - - - ENE 24 28 13 15 1023.2 - -
26/07:30pm 22.4 - - - - ENE 24 26 13 14 1023.2 - -
26/07:26pm 22.3 - - - - ENE 24 - 13 - - 1023.4 -
26/07:00pm 22.3 - - - - ENE 26 30 14 16 1023.0 - -
26/06:30pm 22.3 - - - - ENE 26 30 14 16 1022.7 - -
26/06:26pm 22.3 - - - - ENE 26 - 14 - - 1022.8 -
26/06:00pm 22.3 - - - - ENE 26 30 14 16 1022.6 - -
26/05:30pm 22.1 - - - - ENE 26 32 14 17 1022.5 - -
26/05:26pm 22.2 - - - - ENE 28 - 15 - - 1022.6 -
26/05:00pm 22.2 - - - - ENE 28 32 15 17 1022.3 - -
26/04:30pm 22.3 - - - - E 28 32 15 17 1022.4 - -
26/04:26pm 22.4 - - - - E 28 - 15 - - 1022.5 -
26/04:00pm 22.4 - - - - E 28 32 15 17 1022.1 - -
26/03:30pm 22.4 - - - - E 28 32 15 17 1022.0 - -
26/03:26pm 22.4 - - - - E 28 - 15 - - 1022.1 -
26/03:00pm 22.5 - - - - E 28 32 15 17 1021.9 - -
26/02:30pm 22.5 - - - - E 28 32 15 17 1021.9 - -
26/02:26pm 22.6 - - - - E 30 - 16 - - 1021.9 -
26/02:00pm 22.7 - - - - E 30 33 16 18 1021.8 - -
26/01:30pm 22.4 - - - - E 32 35 17 19 1021.9 - -
26/01:26pm 22.5 - - - - E 32 - 17 - - 1022.0 -
26/01:00pm 22.5 - - - - E 30 35 16 19 1022.2 - -
26/12:30pm 22.5 - - - - E 30 33 16 18 1022.7 - -
26/12:26pm 22.5 - - - - E 28 - 15 - - 1022.8 -
26/12:00pm 22.5 - - - - E 28 32 15 17 1023.0 - -
26/11:30am 22.1 - - - - E 26 32 14 17 1023.6 - -
26/11:26am 22.0 - - - - E 26 - 14 - - 1023.7 -
26/11:00am 21.8 - - - - E 28 32 15 17 1024.0 - -
26/10:30am 21.5 - - - - E 33 39 18 21 1024.1 - -
26/10:26am 21.5 - - - - E 33 - 18 - - 1024.3 -
26/10:00am 21.4 - - - - E 37 41 20 22 1024.3 - -
26/09:30am 21.5 - - - - E 35 41 19 22 1024.5 - -
26/09:26am 21.4 - - - - E 37 - 20 - - 1024.6 -
26/09:00am 21.5 - - - - E 39 43 21 23 1024.4 - -
26/08:30am 20.8 - - - - E 37 43 20 23 1024.4 - -
26/08:26am 20.9 - - - - E 37 - 20 - - 1024.5 -
26/08:00am 21.4 - - - - E 33 37 18 20 1024.0 - -
26/07:30am 21.7 - - - - E 30 39 16 21 1024.0 - -
26/07:26am 21.9 - - - - E 30 - 16 - - 1023.9 -
26/07:00am 22.0 - - - - E 28 32 15 17 1024.0 - -
26/06:30am 22.0 - - - - E 26 30 14 16 1023.8 - -
26/06:26am 21.9 - - - - E 26 - 14 - - 1023.9 -
26/06:00am 22.0 - - - - E 28 32 15 17 1023.6 - -
26/05:30am 21.8 - - - - ESE 19 22 10 12 1023.2 - -
26/05:26am 21.8 - - - - ESE 20 - 11 - - 1023.4 -
26/05:00am 21.6 - - - - E 30 33 16 18 1023.0 - -
26/04:30am 22.1 - - - - E 22 26 12 14 1022.9 - -
26/04:26am 21.9 - - - - E 22 - 12 - - 1023.0 -
26/04:00am 21.3 - - - - SE 17 24 9 13 1023.1 - -
26/03:30am 21.3 - - - - SE 15 17 8 9 1023.2 - -
26/03:26am 21.3 - - - - SE 15 - 8 - - 1023.3 -
26/02:30am 21.2 - - - - ESE 20 24 11 13 1022.9 - -
26/02:26am 21.2 - - - - E 20 - 11 - - 1023.0 -
26/02:00am 20.9 - - - - E 26 30 14 16 1022.8 - -
26/01:30am 21.5 - - - - E 33 37 18 20 1023.2 - -
26/01:26am 21.6 - - - - E 33 - 18 - - 1023.3 -
26/01:00am 22.0 - - - - E 30 35 16 19 1023.4 - -
26/12:30am 22.0 - - - - E 32 35 17 19 1023.7 - -
26/12:26am 22.0 - - - - E 30 35 16 19 1023.7 1023.8 -
26/12:00am 21.9 - - - - E 30 33 16 18 1023.7 - -
 
Date/Time
EST
Temp
°C
App
Temp
°C
Dew
Point
Rel
Hum
%
Delta-T
°C
Wind Press
QNH
hPa
Press
MSL
hPa
Rain
since 9 am
mm
Dir
 
Spd
km/h
Gust
km/h
Spd
kts
Gust
kts
25/11:30pm 22.1 - - - - E 30 35 16 19 1024.0 - -
25/11:26pm 22.1 - - - - E 28 - 15 - - 1024.3 -
25/11:00pm 22.1 - - - - E 32 33 17 18 1024.4 - -
25/10:30pm 21.9 - - - - E 24 30 13 16 1024.5 - -
25/10:26pm 21.8 - - - - E 24 - 13 - - 1024.6 -
25/10:00pm 21.9 - - - - E 30 33 16 18 1024.6 - -
25/09:30pm 22.1 - - - - E 32 37 17 20 1024.4 - -
25/09:26pm 22.1 - - - - E 33 - 18 - - 1024.4 -
25/09:00pm 22.1 - - - - E 33 37 18 20 1024.1 - -
25/08:30pm 22.1 - - - - E 32 35 17 19 1024.0 - -
25/08:26pm 22.1 - - - - E 32 - 17 - - 1024.0 -
25/08:00pm 22.0 - - - - E 32 35 17 19 1023.7 - -
25/07:30pm 22.1 - - - - E 32 35 17 19 1023.4 - -
25/07:26pm 22.1 - - - - E 32 - 17 - - 1023.5 -
25/07:00pm 22.1 - - - - E 30 35 16 19 1023.2 - -
25/06:30pm 22.0 - - - - E 32 37 17 20 1022.8 - -
25/06:26pm 22.0 - - - - E 32 - 17 - - 1022.9 -
25/06:00pm 21.9 - - - - E 32 35 17 19 1022.5 - -
25/05:30pm 21.9 - - - - E 32 37 17 20 1022.1 - -
25/05:26pm 21.9 - - - - E 32 - 17 - - 1022.2 -
25/05:00pm 22.0 - - - - E 32 37 17 20 1021.9 - -
25/04:30pm 22.0 - - - - E 33 37 18 20 1021.6 - -
25/04:26pm 21.9 - - - - E 33 - 18 - - 1021.7 -
25/04:00pm 22.1 - - - - E 32 35 17 19 1021.5 - -
25/03:30pm 22.1 - - - - E 32 33 17 18 1021.4 - -
25/03:26pm 22.2 - - - - E 32 - 17 - - 1021.5 -
25/03:00pm 22.4 - - - - E 28 33 15 18 1021.5 - -
25/02:30pm 22.2 - - - - E 30 35 16 19 1021.5 - -
25/02:26pm 22.2 - - - - ESE 32 - 17 - - 1021.6 -
25/02:00pm 22.2 - - - - E 30 33 16 18 1021.6 - -
25/01:30pm 22.0 - - - - E 32 37 17 20 1021.8 - -
25/01:26pm 21.9 - - - - E 32 - 17 - - 1021.9 -
25/01:00pm 22.4 - - - - ESE 28 32 15 17 1022.2 - -
25/12:30pm 22.0 - - - - ESE 28 32 15 17 1022.6 - -
25/12:26pm 21.9 - - - - ESE 28 - 15 - - 1022.8 -
25/12:00pm 22.0 - - - - E 33 37 18 20 1023.0 - -
25/11:30am 22.1 - - - - E 30 33 16 18 1023.4 - -
25/11:26am 22.2 - - - - E 30 - 16 - - 1023.6 -
25/11:00am 22.4 - - - - E 28 32 15 17 1023.7 - -
25/10:30am 22.2 - - - - E 28 32 15 17 1023.9 - -
25/10:26am 22.2 - - - - E 30 - 16 - - 1024.1 -
25/10:00am 22.1 - - - - E 30 33 16 18 1023.9 - -
25/09:30am 22.3 - - - - E 28 33 15 18 1023.9 - -
25/09:26am 22.3 - - - - E 28 - 15 - - 1024.0 -
25/09:00am 22.3 - - - - E 28 30 15 16 1023.9 - -
25/08:30am 22.3 - - - - E 28 30 15 16 1023.7 - -
25/08:26am 22.2 - - - - E 28 - 15 - - 1023.8 -
25/08:00am 22.2 - - - - E 26 28 14 15 1023.3 - -
25/07:30am 22.1 - - - - E 28 30 15 16 1022.9 - -
25/07:26am 22.0 - - - - E 26 - 14 - - 1023.0 -
25/07:00am 21.9 - - - - E 26 28 14 15 1022.6 - -
25/06:30am 21.6 - - - - E 24 28 13 15 1022.3 - -
25/06:26am 21.5 - - - - E 24 - 13 - - 1022.3 -
25/06:00am 21.6 - - - - E 24 26 13 14 1022.0 - -
25/05:30am 21.5 - - - - E 22 26 12 14 1021.7 - -
25/05:26am 21.5 - - - - E 22 - 12 - - 1021.8 -
25/05:00am 21.5 - - - - E 22 26 12 14 1021.5 - -
25/04:30am 21.5 - - - - E 24 26 13 14 1021.2 - -
25/04:26am 21.5 - - - - E 24 - 13 - - 1021.2 -
25/04:00am 21.5 - - - - E 24 28 13 15 1021.0 - -
25/03:30am 21.6 - - - - E 24 28 13 15 1021.1 - -
25/03:26am 21.6 - - - - E 24 - 13 - - 1021.3 -
25/03:00am 21.6 - - - - E 24 28 13 15 1021.1 - -
25/02:30am 21.6 - - - - E 24 28 13 15 1021.1 - -
25/02:26am 21.7 - - - - E 24 - 13 - - 1021.3 -
25/02:00am 21.6 - - - - E 26 30 14 16 1021.2 - -
25/01:30am 21.7 - - - - E 26 30 14 16 1021.3 - -
25/01:26am 21.7 - - - - E 26 - 14 - - 1021.4 -
25/01:00am 21.7 - - - - E 26 32 14 17 1021.4 - -
25/12:26am 21.6 - - - - E 26 - 14 - - 1021.5 -
25/12:00am 21.7 - - - - E 26 30 14 16 1021.5 - -
 
Date/Time
EST
Temp
°C
App
Temp
°C
Dew
Point
Rel
Hum
%
Delta-T
°C
Wind Press
QNH
hPa
Press
MSL
hPa
Rain
since 9 am
mm
Dir
 
Spd
km/h
Gust
km/h
Spd
kts
Gust
kts
24/11:30pm 21.7 - - - - E 26 32 14 17 1021.6 - -
24/11:26pm 21.7 - - - - E 26 - 14 - - 1021.7 -
24/11:00pm 21.7 - - - - E 26 30 14 16 1021.5 - -
24/10:30pm 21.7 - - - - E 28 32 15 17 1021.7 - -
24/10:26pm 21.7 - - - - E 28 - 15 - - 1021.8 -
24/10:00pm 21.7 - - - - E 26 30 14 16 1021.8 - -
24/09:30pm 21.8 - - - - E 26 30 14 16 1021.7 - -
24/09:26pm 21.8 - - - - E 26 - 14 - - 1021.7 -
24/09:00pm 21.8 - - - - E 28 32 15 17 1021.5 - -
24/08:30pm 21.9 - - - - E 28 32 15 17 1021.3 - -
24/08:26pm 21.9 - - - - E 28 - 15 - - 1021.4 -
24/08:00pm 21.9 - - - - E 26 30 14 16 1021.1 - -
24/07:30pm 21.8 - - - - E 26 30 14 16 1021.0 - -
24/07:26pm 21.7 - - - - E 26 - 14 - - 1021.1 -
24/07:00pm 21.5 - - - - E 26 30 14 16 1020.7 - -
24/06:30pm 21.8 - - - - E 22 26 12 14 1020.4 - -
24/06:26pm 21.8 - - - - E 22 - 12 - - 1020.4 -
24/06:00pm 21.7 - - - - E 20 24 11 13 1020.0 - -
24/05:30pm 21.7 - - - - E 20 22 11 12 1019.6 - -
24/05:26pm 21.7 - - - - E 19 - 10 - - 1019.6 -
24/05:00pm 21.9 - - - - E 20 24 11 13 1019.2 - -
24/04:30pm 21.9 - - - - E 22 24 12 13 1018.9 - -
24/04:26pm 21.9 - - - - E 20 - 11 - - 1019.0 -
24/04:00pm 22.2 - - - - E 20 22 11 12 1018.8 - -
24/03:30pm 22.1 - - - - E 20 24 11 13 1018.6 - -
24/03:26pm 21.9 - - - - E 20 - 11 - - 1018.6 -
24/03:00pm 22.1 - - - - E 22 24 12 13 1018.6 - -
24/02:30pm 22.1 - - - - E 20 26 11 14 1018.4 - -
24/02:26pm 21.8 - - - - E 20 - 11 - - 1018.5 -
24/02:00pm 21.9 - - - - ENE 22 24 12 13 1018.3 - -
24/01:30pm 21.8 - - - - E 22 26 12 14 1018.4 - -
24/01:26pm 21.9 - - - - E 22 - 12 - - 1018.5 -
24/01:00pm 21.9 - - - - E 24 30 13 16 1018.4 - -
24/12:30pm 21.7 - - - - ENE 26 30 14 16 1018.5 - -
24/12:26pm 21.7 - - - - ENE 26 - 14 - - 1018.6 -
24/12:00pm 21.8 - - - - ENE 26 30 14 16 1019.0 - -
24/11:30am 21.7 - - - - E 24 32 13 17 1019.4 - -
24/11:26am 21.9 - - - - E 24 - 13 - - 1019.5 -
24/11:00am 21.8 - - - - E 26 30 14 16 1019.9 - -
24/10:30am 21.7 - - - - E 26 30 14 16 1020.3 - -
24/10:26am 21.8 - - - - E 22 - 12 - - 1020.4 -
24/10:00am 21.5 - - - - E 22 28 12 15 1020.4 - -
24/09:30am 21.0 - - - - ESE 32 37 17 20 1020.5 - -
24/09:26am 20.8 - - - - ESE 32 - 17 - - 1020.6 -
24/09:00am 21.1 - - - - ESE 26 32 14 17 1020.4 - -
24/08:30am 21.5 - - - - ESE 24 28 13 15 1020.4 - -
24/08:26am 21.6 - - - - ESE 24 - 13 - - 1020.4 -
24/08:00am 21.3 - - - - ESE 28 30 15 16 1020.1 - -
24/07:30am 20.8 - - - - ESE 32 35 17 19 1019.8 - -
24/07:26am 20.8 - - - - ESE 32 - 17 - - 1019.8 -
24/07:00am 21.2 - - - - ESE 24 30 13 16 1019.4 - -
24/06:30am 21.1 - - - - E 26 28 14 15 1019.0 - -
24/06:26am 21.1 - - - - E 24 - 13 - - 1019.1 -
24/06:00am 21.2 - - - - E 24 28 13 15 1018.7 - -
24/05:30am 21.1 - - - - E 24 30 13 16 1018.5 - -
24/05:26am 21.2 - - - - E 24 - 13 - - 1018.5 -
24/05:00am 21.1 - - - - E 26 30 14 16 1018.2 - -
24/04:30am 21.0 - - - - E 26 32 14 17 1018.1 - -
24/04:26am 21.0 - - - - E 28 - 15 - - 1018.2 -
24/04:00am 21.1 - - - - E 28 33 15 18 1018.0 - -
24/03:30am 21.1 - - - - E 28 32 15 17 1018.1 - -
24/03:26am 21.1 - - - - E 28 - 15 - - 1018.2 -
24/02:30am 21.1 - - - - E 32 33 17 18 1018.3 - -
24/02:26am 21.2 - - - - E 30 - 16 - - 1018.4 -
24/02:00am 21.2 - - - - E 30 35 16 19 1018.2 - -
24/01:30am 21.3 - - - - E 30 35 16 19 1018.3 - -
24/01:26am 21.3 - - - - E 28 - 15 - - 1018.4 -
24/01:00am 21.2 - - - - E 28 33 15 18 1018.6 - -
24/12:30am 20.9 - - - - ESE 28 39 15 21 1018.6 - -
24/12:26am 21.0 - - - - ESE 28 - 15 - - 1018.7 -
24/12:00am 21.2 - - - - E 32 35 17 19 1018.5 - -
 
Date/Time
EST
Temp
°C
App
Temp
°C
Dew
Point
Rel
Hum
%
Delta-T
°C
Wind Press
QNH
hPa
Press
MSL
hPa
Rain
since 9 am
mm
Dir
 
Spd
km/h
Gust
km/h
Spd
kts
Gust
kts
23/11:30pm 20.9 - - - - ESE 33 37 18 20 1018.6 - -
23/11:26pm 20.9 - - - - ESE 33 - 18 - - 1018.7 -

Other Formats:

Comma delimited format used in spreadsheet applications
http://www.bom.gov.au/fwo/IDQ60801/IDQ60801.94379.axf

JavaScript Object Notation format (JSON) in row-major order
http://www.bom.gov.au/fwo/IDQ60801/IDQ60801.94379.json